createdAt,value
2018-12-08T00:00:33.436Z,85.96
2018-12-08T00:03:03.653Z,86.02
2018-12-08T00:05:33.821Z,86.05
2018-12-08T00:12:09.219Z,83.83
2018-12-08T00:14:38.797Z,83.42
2018-12-08T00:17:10.035Z,83.82
2018-12-08T00:19:40.141Z,83.87
2018-12-08T00:22:12.888Z,83.78
2018-12-08T00:24:42.206Z,83.06
2018-12-08T00:27:12.327Z,82.50
2018-12-08T00:29:42.503Z,83.08
2018-12-08T00:32:13.626Z,83.51
2018-12-08T00:34:44.431Z,82.81
2018-12-08T00:37:14.681Z,83.03
2018-12-08T00:39:44.803Z,82.55
2018-12-08T00:42:15.879Z,82.45
2018-12-08T00:44:45.213Z,83.30
2018-12-08T00:47:15.336Z,83.79
2018-12-08T00:49:44.665Z,83.26
2018-12-08T00:52:14.101Z,83.32
2018-12-08T00:54:43.470Z,83.75
2018-12-08T00:57:14.305Z,83.92
2018-12-08T00:59:43.701Z,83.19
2018-12-08T01:02:13.116Z,83.29
2018-12-08T01:04:43.037Z,84.33
2018-12-08T01:07:12.533Z,83.78
2018-12-08T01:09:44.019Z,84.42
2018-12-08T01:12:15.181Z,82.94
2018-12-08T01:14:45.381Z,82.16
2018-12-08T01:17:15.573Z,82.69
2018-12-08T01:19:45.082Z,82.78
2018-12-08T01:22:14.499Z,82.29
2018-12-08T01:24:44.222Z,82.52
2018-12-08T01:27:13.657Z,82.65
2018-12-08T01:29:44.587Z,84.09
2018-12-08T01:32:13.943Z,83.12
2018-12-08T01:34:43.949Z,82.74
2018-12-08T01:37:13.271Z,83.02
2018-12-08T01:39:42.617Z,83.29
2018-12-08T01:42:12.236Z,84.49
2018-12-08T01:44:41.648Z,83.75
2018-12-08T01:47:12.886Z,83.52
2018-12-08T01:49:42.260Z,84.22
2018-12-08T01:52:12.537Z,83.81
2018-12-08T01:54:41.932Z,83.35
2018-12-08T01:57:11.336Z,84.00
2018-12-08T01:59:40.751Z,84.21
2018-12-08T02:02:11.987Z,83.60
2018-12-08T02:04:41.414Z,84.36
2018-12-08T02:18:17.827Z,85.96
2018-12-08T02:31:06.146Z,86.45
2018-12-08T02:37:06.951Z,85.71
2018-12-08T03:57:28.026Z,89.20
2018-12-08T04:22:59.611Z,85.96
2018-12-08T04:25:30.133Z,85.93
2018-12-08T04:27:59.556Z,84.25
2018-12-08T04:30:28.937Z,85.94
2018-12-08T04:32:59.237Z,85.66
2018-12-08T04:35:30.413Z,84.84
2018-12-08T04:37:59.814Z,84.85
2018-12-08T04:40:29.706Z,86.10
2018-12-08T04:42:59.112Z,85.49
2018-12-08T04:45:30.316Z,85.80
2018-12-08T04:47:59.706Z,85.64
2018-12-08T04:50:31.540Z,85.71
2018-12-08T04:53:02.583Z,85.76
2018-12-08T04:55:32.725Z,85.54
2018-12-08T04:58:02.071Z,86.12
2018-12-08T05:00:31.428Z,85.82
2018-12-08T05:03:01.435Z,86.09
2018-12-08T05:05:30.777Z,86.29
2018-12-08T05:08:02.091Z,87.29
2018-12-08T05:10:33.071Z,86.84
2018-12-08T05:13:05.066Z,86.72
2018-12-08T05:15:34.873Z,87.88
2018-12-08T05:18:07.797Z,88.11
2018-12-08T05:20:41.631Z,87.25
2018-12-08T05:23:11.006Z,87.61
2018-12-08T05:25:41.129Z,88.27
2018-12-08T05:30:53.395Z,88.45
2018-12-08T05:33:22.786Z,88.64
2018-12-08T05:35:53.100Z,88.29
2018-12-08T05:38:22.471Z,88.35
2018-12-08T05:40:51.904Z,89.29
2018-12-08T05:43:22.042Z,89.71
2018-12-08T05:45:52.030Z,88.79
2018-12-08T05:48:22.094Z,89.64
2018-12-08T05:50:51.362Z,88.69
2018-12-08T05:53:22.288Z,87.95
2018-12-08T05:55:51.628Z,88.39
2018-12-08T05:58:20.952Z,88.39
2018-12-08T06:00:52.093Z,87.12
2018-12-08T06:03:22.158Z,87.48
2018-12-08T06:05:54.060Z,87.28
2018-12-08T06:08:23.402Z,87.38
2018-12-08T06:10:52.664Z,86.42
2018-12-08T06:13:23.331Z,86.72
2018-12-08T06:15:53.414Z,85.36
2018-12-08T06:18:22.744Z,85.65
2018-12-08T06:20:52.020Z,85.48
2018-12-08T06:23:21.298Z,84.41
2018-12-08T06:25:50.595Z,84.57
2018-12-08T06:28:23.753Z,85.26
2018-12-08T06:30:53.046Z,85.27
2018-12-08T06:33:22.336Z,85.10
2018-12-08T06:35:54.279Z,84.68
2018-12-08T06:38:25.356Z,83.54
2018-12-08T06:40:56.463Z,84.25
2018-12-08T06:43:25.720Z,84.04
2018-12-08T06:45:55.006Z,83.74
2018-12-08T06:48:27.118Z,83.39
2018-12-08T06:50:56.578Z,83.91
2018-12-08T06:53:25.848Z,82.99
2018-12-08T06:55:55.926Z,84.15
2018-12-08T06:58:25.226Z,83.49
2018-12-08T07:00:55.393Z,83.43
2018-12-08T07:03:24.664Z,83.69
2018-12-08T07:05:54.029Z,83.92
2018-12-08T07:08:24.214Z,82.51
2018-12-08T07:10:53.464Z,82.19
2018-12-08T07:13:22.870Z,82.20
2018-12-08T07:15:52.270Z,82.92
2018-12-08T07:18:23.269Z,83.12
2018-12-08T07:20:52.611Z,83.10
2018-12-08T07:23:23.402Z,82.48
2018-12-08T07:25:52.752Z,82.37
2018-12-08T07:28:22.045Z,82.98
2018-12-08T07:30:53.186Z,82.27
2018-12-08T07:33:23.320Z,83.24
2018-12-08T07:35:52.711Z,82.84
2018-12-08T07:38:22.008Z,82.82
2018-12-08T07:40:53.123Z,82.51
2018-12-08T07:43:24.681Z,82.23
2018-12-08T07:45:56.789Z,81.34
2018-12-08T07:48:26.168Z,82.60
2018-12-08T07:50:58.123Z,82.42
2018-12-08T07:53:27.441Z,81.58
2018-12-08T07:55:56.823Z,81.54
2018-12-08T07:58:26.182Z,81.82
2018-12-08T08:00:55.565Z,81.71
2018-12-08T08:03:24.963Z,81.14
2018-12-08T08:05:55.114Z,80.93
2018-12-08T08:08:26.206Z,80.82
2018-12-08T08:10:55.500Z,80.88
2018-12-08T08:13:25.624Z,80.46
2018-12-08T08:15:54.879Z,80.52
2018-12-08T08:18:24.280Z,80.48
2018-12-08T08:20:53.657Z,79.08
2018-12-08T08:23:23.230Z,79.76
2018-12-08T08:25:52.563Z,80.27
2018-12-08T08:28:21.930Z,80.19
2018-12-08T08:30:51.206Z,78.68
2018-12-08T08:33:20.600Z,77.84
2018-12-08T08:35:51.728Z,77.59
2018-12-08T08:38:21.243Z,77.72
2018-12-08T08:40:53.083Z,78.25
2018-12-08T08:43:22.544Z,77.69
2018-12-08T08:45:51.912Z,77.73
2018-12-08T08:48:24.012Z,77.13
2018-12-08T08:50:54.097Z,77.66
2018-12-08T08:53:27.287Z,76.93
2018-12-08T08:55:56.695Z,75.51
2018-12-08T08:58:26.819Z,75.43
2018-12-08T09:00:56.644Z,75.21
2018-12-08T09:03:26.136Z,75.25
2018-12-08T09:05:55.642Z,75.22
2018-12-08T09:08:25.145Z,76.16
2018-12-08T09:10:54.575Z,73.90
2018-12-08T09:13:24.694Z,73.69
2018-12-08T09:15:54.186Z,73.49
2018-12-08T09:18:24.334Z,72.71
2018-12-08T09:20:55.556Z,72.63
2018-12-08T09:23:25.065Z,72.54
2018-12-08T09:25:55.289Z,73.38
2018-12-08T09:28:24.698Z,72.17
2018-12-08T09:30:54.133Z,72.60
2018-12-08T09:33:23.535Z,71.77
2018-12-08T09:35:54.170Z,71.38
2018-12-08T09:38:23.470Z,71.00
2018-12-08T09:40:56.210Z,72.43
2018-12-08T09:43:26.270Z,71.90
2018-12-08T09:45:56.459Z,71.42
2018-12-08T09:48:25.795Z,71.78
2018-12-08T09:50:56.075Z,70.84
2018-12-08T09:53:26.572Z,71.06
2018-12-08T09:55:56.180Z,71.22
2018-12-08T09:58:25.651Z,71.17
2018-12-08T10:00:57.546Z,70.34
2018-12-08T10:03:27.802Z,69.89
2018-12-08T10:05:57.183Z,70.02
2018-12-08T10:08:28.428Z,70.91
2018-12-08T10:10:58.604Z,70.20
2018-12-08T10:13:28.145Z,70.59
2018-12-08T10:15:57.724Z,70.15
2018-12-08T10:18:27.401Z,70.78
2018-12-08T10:20:58.471Z,69.79
2018-12-08T10:23:29.441Z,70.14
2018-12-08T10:25:59.683Z,69.86
2018-12-08T10:28:29.033Z,69.76
2018-12-08T10:30:58.327Z,68.73
2018-12-08T10:33:28.322Z,67.71
2018-12-08T10:35:57.908Z,68.05
2018-12-08T10:38:27.334Z,68.21
2018-12-08T10:40:56.696Z,69.04
2018-12-08T10:43:26.245Z,70.28
2018-12-08T10:45:56.440Z,68.71
2018-12-08T10:48:25.829Z,67.56
2018-12-08T10:50:57.690Z,68.09
2018-12-08T10:53:27.991Z,68.10
2018-12-08T10:55:57.416Z,68.12
2018-12-08T10:58:27.650Z,67.27
2018-12-08T11:01:04.912Z,66.69
2018-12-08T11:03:52.351Z,67.53
2018-12-08T11:06:21.870Z,67.22
2018-12-08T11:08:51.238Z,67.13
2018-12-08T11:11:20.643Z,67.55
2018-12-08T11:13:50.152Z,69.00
2018-12-08T11:16:19.556Z,67.22
2018-12-08T11:18:49.033Z,67.46
2018-12-08T11:21:19.236Z,67.57
2018-12-08T11:23:49.632Z,68.04
2018-12-08T11:26:19.096Z,68.40
2018-12-08T11:28:48.454Z,67.67
2018-12-08T11:31:17.990Z,68.01
2018-12-08T11:33:48.160Z,67.95
2018-12-08T11:36:17.720Z,67.95
2018-12-08T11:38:49.730Z,68.27
2018-12-08T11:41:19.288Z,68.30
2018-12-08T11:43:48.746Z,68.60
2018-12-08T11:46:18.244Z,67.36
2018-12-08T11:48:48.454Z,66.84
2018-12-08T11:51:20.547Z,66.90
2018-12-08T11:53:50.297Z,66.69
2018-12-08T11:56:23.122Z,66.57
2018-12-08T11:58:52.649Z,66.99
2018-12-08T12:01:23.864Z,67.59
2018-12-08T12:03:55.269Z,67.47
2018-12-08T12:06:25.548Z,68.16
2018-12-08T12:08:56.850Z,67.23
2018-12-08T12:11:26.421Z,67.62
2018-12-08T12:13:55.889Z,68.31
2018-12-08T12:16:25.374Z,69.18
2018-12-08T12:18:54.954Z,67.86
2018-12-08T12:21:24.357Z,67.38
2018-12-08T12:23:53.715Z,67.09
2018-12-08T12:26:24.103Z,66.03
2018-12-08T12:28:53.444Z,67.37
2018-12-08T12:31:22.909Z,67.44
2018-12-08T12:33:52.455Z,67.92
2018-12-08T12:36:21.959Z,68.89
2018-12-08T12:38:51.433Z,70.44
2018-12-08T12:41:24.348Z,71.02
2018-12-08T12:43:56.268Z,69.34
2018-12-08T12:46:27.245Z,69.36
2018-12-08T12:48:56.873Z,68.94
2018-12-08T12:51:27.077Z,69.79
2018-12-08T12:53:57.271Z,68.58
2018-12-08T12:56:29.360Z,69.02
2018-12-08T12:58:59.470Z,69.12
2018-12-08T13:01:31.559Z,68.98
2018-12-08T13:04:01.355Z,69.29
2018-12-08T13:06:30.801Z,69.02
2018-12-08T13:09:01.034Z,69.27
2018-12-08T13:11:31.157Z,69.84
2018-12-08T13:14:00.626Z,69.05
2018-12-08T13:16:30.125Z,68.94
2018-12-08T13:19:01.397Z,68.57
2018-12-08T13:21:32.535Z,67.91
2018-12-08T13:24:02.011Z,69.73
2018-12-08T13:26:31.509Z,69.30
2018-12-08T13:29:00.957Z,69.27
2018-12-08T13:31:31.179Z,68.74
2018-12-08T13:34:09.491Z,69.36
2018-12-08T13:36:40.044Z,69.46
2018-12-08T13:39:09.557Z,70.04
2018-12-08T13:42:12.313Z,69.57
2018-12-08T13:45:16.412Z,68.12
2018-12-08T13:48:20.034Z,67.99
2018-12-08T13:51:23.713Z,68.01
2018-12-08T13:54:32.680Z,68.68
2018-12-08T13:57:36.155Z,69.53
2018-12-08T14:05:26.884Z,69.25
2018-12-08T14:07:56.480Z,68.33
2018-12-08T14:10:27.757Z,67.93
2018-12-08T14:12:57.318Z,68.29
2018-12-08T14:15:27.556Z,68.99
2018-12-08T14:17:57.137Z,68.99
2018-12-08T14:20:30.043Z,68.56
2018-12-08T14:23:01.221Z,69.29
2018-12-08T14:25:34.065Z,69.63
2018-12-08T14:28:05.450Z,70.67
2018-12-08T14:30:34.930Z,71.06
2018-12-08T14:33:04.392Z,70.26
2018-12-08T14:35:35.688Z,70.27
2018-12-08T14:38:05.181Z,69.28
2018-12-08T14:40:35.398Z,70.12
2018-12-08T14:43:05.709Z,69.62
2018-12-08T14:45:36.627Z,70.32
2018-12-08T14:48:06.830Z,70.61
2018-12-08T14:50:36.342Z,71.00
2018-12-08T14:53:05.804Z,71.14
2018-12-08T14:55:35.389Z,71.37
2018-12-08T14:58:04.914Z,71.24
2018-12-08T15:00:34.496Z,71.22
2018-12-08T15:03:06.380Z,71.01
2018-12-08T15:08:08.051Z,71.09
2018-12-08T15:10:38.161Z,71.62
2018-12-08T15:13:08.371Z,72.08
2018-12-08T15:15:38.511Z,72.28
2018-12-08T15:18:09.760Z,71.86
2018-12-08T15:20:41.498Z,72.48
2018-12-08T15:23:11.003Z,72.46
2018-12-08T15:25:41.965Z,72.68
2018-12-08T15:28:11.981Z,72.48
2018-12-08T15:30:41.404Z,72.42
2018-12-08T15:33:10.840Z,72.28
2018-12-08T15:35:40.385Z,73.29
2018-12-08T15:38:10.902Z,73.61
2018-12-08T15:40:41.132Z,74.27
2018-12-08T15:43:10.578Z,74.46
2018-12-08T15:45:41.470Z,74.82
2018-12-08T15:48:12.135Z,75.64
2018-12-08T15:50:42.978Z,75.78
2018-12-08T15:53:12.439Z,76.50
2018-12-08T15:55:41.848Z,76.62
2018-12-08T15:58:14.114Z,76.46
2018-12-08T16:00:46.085Z,77.02
2018-12-08T16:03:15.618Z,76.84
2018-12-08T16:05:45.071Z,76.68
2018-12-08T16:08:15.309Z,77.70
2018-12-08T16:10:45.463Z,77.82
2018-12-08T16:13:17.438Z,77.39
2018-12-08T16:15:47.727Z,77.98
2018-12-08T16:18:17.119Z,78.43
2018-12-08T16:20:46.524Z,78.84
2018-12-08T16:23:16.080Z,78.92
2018-12-08T16:25:46.217Z,79.41
2018-12-08T16:28:15.655Z,78.39
2018-12-08T16:30:45.879Z,78.36
2018-12-08T16:33:17.579Z,77.47
2018-12-08T16:35:47.027Z,78.08
2018-12-08T16:38:16.497Z,77.60
2018-12-08T16:40:46.049Z,78.04
2018-12-08T16:43:16.327Z,77.87
2018-12-08T16:45:45.787Z,77.52
2018-12-08T16:48:15.112Z,77.70
2018-12-08T16:50:44.572Z,77.28
2018-12-08T16:53:14.189Z,76.70
2018-12-08T16:55:44.395Z,76.95
2018-12-08T16:58:15.565Z,76.69
2018-12-08T17:00:45.652Z,77.41
2018-12-08T17:03:15.192Z,77.08
2018-12-08T17:05:44.640Z,76.26
2018-12-08T17:08:15.871Z,76.57
2018-12-08T17:10:46.947Z,77.34
2018-12-08T17:13:16.370Z,77.77
2018-12-08T17:15:49.785Z,76.95
2018-12-08T17:18:19.159Z,77.39
2018-12-08T17:20:48.574Z,76.55
2018-12-08T17:23:19.727Z,77.75
2018-12-08T17:25:49.142Z,77.33
2018-12-08T17:28:21.957Z,77.19
2018-12-08T17:30:52.228Z,77.62
2018-12-08T17:33:21.640Z,78.12
2018-12-08T17:35:52.741Z,77.76
2018-12-08T17:38:22.936Z,78.57
2018-12-08T17:40:52.540Z,78.26
2018-12-08T17:43:21.932Z,78.42
2018-12-08T17:45:52.117Z,78.00
2018-12-08T17:48:21.767Z,77.92
2018-12-08T17:50:53.686Z,78.55
2018-12-08T17:53:25.850Z,78.99
2018-12-08T17:55:56.039Z,78.21
2018-12-08T17:58:25.525Z,78.94
2018-12-08T18:00:57.610Z,78.95
2018-12-08T18:03:27.018Z,78.62
2018-12-08T18:05:57.210Z,79.16
2018-12-08T18:08:26.775Z,79.38
2018-12-08T18:10:56.294Z,78.81
2018-12-08T18:13:25.731Z,79.21
2018-12-08T18:15:55.841Z,78.38
2018-12-08T18:18:27.100Z,78.71
2018-12-08T18:20:56.592Z,78.54
2018-12-08T18:23:26.475Z,78.09
2018-12-08T18:25:55.816Z,78.29
2018-12-08T18:28:27.006Z,78.57
2018-12-08T18:30:56.433Z,78.03
2018-12-08T18:33:27.667Z,77.58
2018-12-08T18:35:59.619Z,77.57
2018-12-08T18:38:32.291Z,77.67
2018-12-08T18:41:03.335Z,77.69
2018-12-08T18:43:34.581Z,77.97
2018-12-08T18:46:04.967Z,76.35
2018-12-08T18:48:34.389Z,77.29
2018-12-08T18:51:07.310Z,76.81
2018-12-08T18:53:36.809Z,77.41
2018-12-08T18:56:07.942Z,77.21
2018-12-08T18:58:37.359Z,76.61
2018-12-08T19:01:06.866Z,76.50
2018-12-08T19:03:37.964Z,76.74
2018-12-08T19:06:07.470Z,76.25
2018-12-08T19:08:36.805Z,76.38
2018-12-08T19:11:07.135Z,75.53
2018-12-08T19:13:36.634Z,75.28
2018-12-08T19:16:06.108Z,76.80
2018-12-08T19:18:35.820Z,76.45
2018-12-08T19:21:05.418Z,75.29
2018-12-08T19:23:43.398Z,76.70
2018-12-08T19:26:07.141Z,76.26
2018-12-08T19:28:37.493Z,75.94
2018-12-08T19:31:07.097Z,75.24
2018-12-08T19:33:37.474Z,76.10
2018-12-08T19:36:09.519Z,75.45
2018-12-08T19:41:45.489Z,75.56
2018-12-08T19:44:48.615Z,75.05
2018-12-08T19:47:52.595Z,75.31
2018-12-08T19:50:57.938Z,74.69
2018-12-08T19:54:01.716Z,74.83
2018-12-08T19:57:05.402Z,74.55
2018-12-08T20:00:08.892Z,74.22
2018-12-08T20:03:11.996Z,75.19
2018-12-08T20:06:16.881Z,74.79
2018-12-08T20:09:20.610Z,74.60
2018-12-08T20:12:24.370Z,74.51
2018-12-08T20:15:29.743Z,74.06
2018-12-08T20:18:33.398Z,75.19
2018-12-08T20:21:37.102Z,74.71
2018-12-08T20:24:41.125Z,74.52
2018-12-08T20:27:47.283Z,74.72
2018-12-08T20:30:51.065Z,74.02
2018-12-08T20:33:54.159Z,74.38
2018-12-08T20:36:57.846Z,74.98
2018-12-08T20:40:01.608Z,74.42
2018-12-08T20:43:05.272Z,74.26
2018-12-08T20:46:08.785Z,73.88
2018-12-08T20:49:12.647Z,74.23
2018-12-08T20:52:17.820Z,73.57
2018-12-08T20:55:22.825Z,73.44
2018-12-08T20:58:26.631Z,74.10
2018-12-08T21:01:30.336Z,73.95
2018-12-08T21:04:34.401Z,73.73
2018-12-08T21:07:38.264Z,74.76
2018-12-08T21:10:41.961Z,74.70
2018-12-08T21:13:48.385Z,74.84
2018-12-08T21:16:54.602Z,75.03
2018-12-08T21:19:58.330Z,75.10
2018-12-08T21:23:01.905Z,74.69
2018-12-08T21:26:05.807Z,75.13
2018-12-08T21:29:11.560Z,75.10
2018-12-08T21:32:19.338Z,74.42
2018-12-08T21:35:22.944Z,75.00
2018-12-08T21:38:26.485Z,76.05
2018-12-08T21:41:31.706Z,75.34
2018-12-08T21:44:36.647Z,76.31
2018-12-08T21:47:40.022Z,76.42
2018-12-08T21:50:43.214Z,76.28
2018-12-08T21:53:48.179Z,76.64
2018-12-08T21:56:52.584Z,76.61
2018-12-08T21:59:57.692Z,76.64
2018-12-08T22:03:01.344Z,76.82
2018-12-08T22:06:05.174Z,76.68
2018-12-08T22:09:09.055Z,77.17
2018-12-08T22:12:14.851Z,77.44
2018-12-08T22:15:17.170Z,77.20
2018-12-08T22:18:21.213Z,77.73
2018-12-08T22:21:25.029Z,76.92
2018-12-08T22:24:28.823Z,77.03
2018-12-08T22:27:32.679Z,77.12
2018-12-08T22:30:37.976Z,77.30
2018-12-08T22:33:41.515Z,77.58
2018-12-08T22:41:21.019Z,81.12
2018-12-08T22:43:53.400Z,84.00
2018-12-08T22:46:24.678Z,85.44
2018-12-08T22:48:54.094Z,85.89
2018-12-08T22:51:23.650Z,86.92
2018-12-08T22:53:53.833Z,87.79
2018-12-08T22:56:23.329Z,88.01
2018-12-08T22:58:52.726Z,88.17
2018-12-08T23:01:22.161Z,88.82
2018-12-08T23:03:55.003Z,87.87
2018-12-08T23:06:25.157Z,87.58
2018-12-08T23:08:56.302Z,86.36
2018-12-08T23:11:25.785Z,86.10
2018-12-08T23:13:55.944Z,85.26
2018-12-08T23:16:25.368Z,84.83
2018-12-08T23:18:56.605Z,84.37
2018-12-08T23:21:26.805Z,83.95
2018-12-08T23:23:56.190Z,83.57
2018-12-08T23:26:25.617Z,83.80
2018-12-08T23:28:55.034Z,83.72
2018-12-08T23:31:26.210Z,83.39
2018-12-08T23:33:55.508Z,82.46
2018-12-08T23:36:24.966Z,82.22
2018-12-08T23:38:56.238Z,82.31
2018-12-08T23:41:25.588Z,82.87
2018-12-08T23:44:25.918Z,82.74
2018-12-08T23:46:55.396Z,82.58
2018-12-08T23:49:24.796Z,82.28
2018-12-08T23:51:54.153Z,82.92
2018-12-08T23:54:24.860Z,83.59
2018-12-08T23:56:56.189Z,83.01
2018-12-08T23:59:25.636Z,83.89
